Time;durP1;ratioP1;P1;durP2;ratioP2;P2;SDS_P1;SDS_P2;PMS_P1;PMS_P2;Temp;Humidity;BMP_temperature;BMP_pressure;BME280_temperature;BME280_humidity;BME280_pressure;Samples;Min_cycle;Max_cycle;Signal;HPM_P1;HPM_P2
2021/08/20 00:01:51;;;;;;;3.47;3.17;;;18.40;99.90;;;;;;4992338;28;20209;-64
2021/08/20 00:04:17;;;;;;;3.23;2.93;;;18.30;99.90;;;;;;4992592;28;20176;-64
2021/08/20 00:06:43;;;;;;;2.73;2.53;;;18.30;99.90;;;;;;4992650;28;20179;-64
2021/08/20 00:09:09;;;;;;;4.80;3.00;;;18.20;99.90;;;;;;5011757;28;20202;-64
2021/08/20 00:11:37;;;;;;;5.80;2.87;;;18.10;99.90;;;;;;5012104;28;20190;-64
2021/08/20 00:14:03;;;;;;;4.30;3.27;;;18.10;99.90;;;;;;5012031;28;20414;-64
2021/08/20 00:16:29;;;;;;;3.93;3.40;;;18.20;99.90;;;;;;5012188;28;20417;-64
2021/08/20 00:18:54;;;;;;;3.17;2.93;;;18.20;99.90;;;;;;5011773;28;20779;-64
2021/08/20 00:21:20;;;;;;;3.00;2.80;;;18.30;99.90;;;;;;5011935;28;20203;-64
2021/08/20 00:23:45;;;;;;;2.90;2.70;;;18.20;99.90;;;;;;5012012;28;20171;-64
2021/08/20 00:26:11;;;;;;;2.80;2.60;;;18.20;99.90;;;;;;5011992;28;20636;-64
2021/08/20 00:28:36;;;;;;;2.80;2.60;;;18.30;99.90;;;;;;5011618;28;20546;-64
2021/08/20 00:31:02;;;;;;;2.50;2.30;;;18.30;99.90;;;;;;5011782;28;20249;-64
2021/08/20 00:33:28;;;;;;;2.83;2.40;;;18.30;99.90;;;;;;5008271;28;20646;-64
2021/08/20 00:35:54;;;;;;;3.23;2.90;;;18.30;99.90;;;;;;4992157;28;20255;-64
2021/08/20 00:38:20;;;;;;;2.97;2.77;;;18.30;99.90;;;;;;4992239;28;20720;-64
2021/08/20 00:40:45;;;;;;;3.40;2.40;;;18.30;99.90;;;;;;4991990;28;20431;-64
2021/08/20 00:43:11;;;;;;;2.83;2.63;;;18.40;99.90;;;;;;4992153;28;20176;-64
2021/08/20 00:45:37;;;;;;;3.03;2.70;;;18.30;99.90;;;;;;5000619;28;20183;-64
2021/08/20 00:48:03;;;;;;;2.60;2.40;;;18.30;99.90;;;;;;5011750;28;20587;-64
2021/08/20 00:50:29;;;;;;;3.30;2.80;;;18.40;99.90;;;;;;5011258;28;20195;-64
2021/08/20 00:52:55;;;;;;;3.00;2.80;;;18.40;99.90;;;;;;5011797;28;20428;-64
2021/08/20 00:55:24;;;;;;;2.97;2.67;;;18.30;99.90;;;;;;4996311;28;20517;-64
2021/08/20 00:57:51;;;;;;;4.43;3.00;;;18.20;99.90;;;;;;4992143;28;20175;-64
2021/08/20 01:00:17;;;;;;;3.03;2.83;;;18.20;99.90;;;;;;4991716;28;20481;-64
2021/08/20 01:02:43;;;;;;;3.37;3.10;;;18.10;99.90;;;;;;5006654;28;20492;-64
2021/08/20 01:05:10;;;;;;;2.90;2.70;;;18.10;99.90;;;;;;5011520;28;20421;-64
2021/08/20 01:07:37;;;;;;;2.73;2.53;;;18.10;99.90;;;;;;4997002;28;20414;-64
2021/08/20 01:10:04;;;;;;;2.97;2.77;;;17.90;99.90;;;;;;4991592;28;20462;-64
2021/08/20 01:12:29;;;;;;;3.40;2.43;;;18.00;99.90;;;;;;4993585;28;20588;-64
2021/08/20 01:14:55;;;;;;;2.90;2.57;;;17.90;99.90;;;;;;4995417;28;20518;-64
2021/08/20 01:17:21;;;;;;;3.17;2.80;;;18.00;99.90;;;;;;4995271;28;20179;-64
2021/08/20 01:19:47;;;;;;;7.90;3.20;;;17.90;99.90;;;;;;4993685;28;20435;-64
2021/08/20 01:22:13;;;;;;;19.90;4.00;;;17.80;99.90;;;;;;4995255;28;20214;-64
2021/08/20 01:24:41;;;;;;;6.17;2.50;;;17.80;99.90;;;;;;4995342;28;20431;-64
2021/08/20 01:27:06;;;;;;;7.43;2.70;;;17.80;99.90;;;;;;4996293;28;20198;-64
2021/08/20 01:29:32;;;;;;;4.00;2.40;;;17.80;99.90;;;;;;5002037;28;20769;-64
2021/08/20 01:31:57;;;;;;;3.00;2.40;;;17.80;99.90;;;;;;5014199;28;20252;-64
2021/08/20 01:34:23;;;;;;;2.80;2.43;;;17.80;99.90;;;;;;5014666;28;20696;-64
2021/08/20 01:36:48;;;;;;;7.13;3.27;;;17.90;99.90;;;;;;5014574;28;20175;-64
2021/08/20 01:39:14;;;;;;;3.43;2.23;;;17.90;99.90;;;;;;5014208;28;20266;-64
2021/08/20 01:41:39;;;;;;;8.80;3.03;;;17.80;99.90;;;;;;5014438;28;20199;-64
2021/08/20 01:44:05;;;;;;;6.30;2.80;;;17.90;99.90;;;;;;5014404;28;20202;-64
2021/08/20 01:46:32;;;;;;;4.70;3.53;;;17.90;99.90;;;;;;5014550;28;20186;-64
2021/08/20 01:48:59;;;;;;;5.60;2.07;;;17.90;99.90;;;;;;5012279;28;20213;-64
2021/08/20 01:51:27;;;;;;;6.50;3.00;;;17.90;99.90;;;;;;5014279;28;20504;-64
2021/08/20 01:53:54;;;;;;;4.67;3.43;;;17.90;99.90;;;;;;5014251;28;20430;-64
2021/08/20 01:56:24;;;;;;;8.83;3.30;;;17.90;99.90;;;;;;5014301;28;20430;-64
2021/08/20 01:58:51;;;;;;;5.97;2.37;;;17.90;99.90;;;;;;5014016;28;20851;-64
2021/08/20 02:01:16;;;;;;;3.07;2.87;;;18.00;99.90;;;;;;5008636;28;20998;-64
2021/08/20 02:03:42;;;;;;;5.07;3.13;;;17.90;99.90;;;;;;4994522;28;20423;-64
2021/08/20 02:06:08;;;;;;;4.60;3.63;;;17.90;99.90;;;;;;4994439;28;20188;-64
2021/08/20 02:08:34;;;;;;;6.57;3.13;;;17.90;99.90;;;;;;4994031;28;20203;-64
2021/08/20 02:11:00;;;;;;;3.77;2.80;;;17.80;99.90;;;;;;4994326;28;20450;-64
2021/08/20 02:13:26;;;;;;;4.53;3.10;;;17.70;99.90;;;;;;4994389;28;20484;-64
2021/08/20 02:15:52;;;;;;;4.53;2.60;;;17.70;99.90;;;;;;5005335;28;20727;-64
2021/08/20 02:18:18;;;;;;;14.57;3.53;;;17.70;99.90;;;;;;5013763;28;20533;-64
2021/08/20 02:20:44;;;;;;;5.17;2.50;;;17.70;99.90;;;;;;4997095;28;20447;-64
2021/08/20 02:23:10;;;;;;;9.40;3.13;;;17.70;99.90;;;;;;5000013;28;20915;-64
2021/08/20 02:25:36;;;;;;;4.03;2.50;;;17.80;99.90;;;;;;5013809;28;20452;-64
2021/08/20 02:28:02;;;;;;;5.33;3.80;;;17.90;99.90;;;;;;5013606;28;20414;-64
2021/08/20 02:30:28;;;;;;;6.40;3.97;;;17.80;99.90;;;;;;5013210;28;20168;-64
2021/08/20 02:32:53;;;;;;;8.03;2.63;;;17.80;99.90;;;;;;5013589;28;20555;-64
2021/08/20 02:35:19;;;;;;;5.67;3.00;;;17.80;99.90;;;;;;5013473;28;20210;-64
2021/08/20 02:37:44;;;;;;;3.37;2.40;;;17.80;99.90;;;;;;5013520;28;20175;-64
2021/08/20 02:40:10;;;;;;;4.70;2.70;;;17.80;99.90;;;;;;5013139;28;20229;-64
2021/08/20 02:42:36;;;;;;;5.43;2.77;;;17.80;99.90;;;;;;5013428;28;20218;-64
2021/08/20 02:45:01;;;;;;;2.63;2.43;;;17.90;99.90;;;;;;5013236;28;20484;-64
2021/08/20 02:47:27;;;;;;;6.37;2.90;;;17.90;99.90;;;;;;5004941;28;20245;-64
2021/08/20 02:49:52;;;;;;;5.23;2.53;;;18.00;99.90;;;;;;4993289;28;20196;-64
2021/08/20 02:52:18;;;;;;;5.37;3.57;;;18.00;99.90;;;;;;4994705;28;20245;-64
2021/08/20 02:54:43;;;;;;;5.80;3.33;;;18.00;99.90;;;;;;4993643;28;20172;-64
2021/08/20 02:57:09;;;;;;;10.70;3.23;;;18.00;99.90;;;;;;4993522;28;20558;-64
2021/08/20 02:59:34;;;;;;;9.63;3.40;;;17.90;99.90;;;;;;4991877;28;20183;-64
2021/08/20 03:02:00;;;;;;;6.33;3.10;;;17.90;99.90;;;;;;5006436;28;20214;-64
2021/08/20 03:04:26;;;;;;;8.13;3.63;;;17.90;99.90;;;;;;5013086;28;20179;-64
2021/08/20 03:06:53;;;;;;;14.30;4.23;;;17.90;99.90;;;;;;5004028;28;20669;-64
2021/08/20 03:09:20;;;;;;;4.93;2.67;;;17.90;99.90;;;;;;4992960;28;20203;-64
2021/08/20 03:11:47;;;;;;;10.63;3.60;;;17.90;99.90;;;;;;4993230;28;20517;-64
2021/08/20 03:14:13;;;;;;;7.23;3.00;;;17.90;99.90;;;;;;4993123;28;20469;-64
2021/08/20 03:16:38;;;;;;;8.10;3.37;;;17.80;99.90;;;;;;4993253;28;20826;-64
2021/08/20 03:19:04;;;;;;;7.17;3.03;;;17.80;99.90;;;;;;5000337;28;20183;-64
2021/08/20 03:21:29;;;;;;;7.07;3.10;;;17.80;99.90;;;;;;5012597;28;20194;-64
2021/08/20 03:23:55;;;;;;;6.03;2.80;;;17.80;99.90;;;;;;5012713;28;20166;-64
2021/08/20 03:26:22;;;;;;;10.43;2.90;;;17.90;99.90;;;;;;5013002;28;20507;-64
2021/08/20 03:28:48;;;;;;;14.27;3.87;;;17.90;99.90;;;;;;5012153;28;20461;-64
2021/08/20 03:31:14;;;;;;;10.90;3.43;;;17.90;99.90;;;;;;5012522;28;20445;-64
2021/08/20 03:33:39;;;;;;;9.13;3.37;;;17.80;99.90;;;;;;5012497;28;20468;-64
2021/08/20 03:36:05;;;;;;;7.17;3.23;;;17.80;99.90;;;;;;5011936;28;20171;-64
2021/08/20 03:38:31;;;;;;;5.77;3.43;;;17.80;99.90;;;;;;5012164;28;20206;-64
2021/08/20 03:40:56;;;;;;;3.70;2.60;;;17.90;99.90;;;;;;5011132;28;20480;-64
2021/08/20 03:43:22;;;;;;;6.27;3.07;;;17.90;99.90;;;;;;5012281;28;20186;-64
2021/08/20 03:45:47;;;;;;;6.17;3.40;;;17.90;99.90;;;;;;5012356;28;20179;-64
2021/08/20 03:48:13;;;;;;;6.30;3.60;;;17.90;99.90;;;;;;5010566;28;20186;-64
2021/08/20 03:50:38;;;;;;;20.40;3.90;;;18.00;99.90;;;;;;5011923;28;20257;-64
2021/08/20 03:53:04;;;;;;;7.70;3.87;;;17.80;99.90;;;;;;5012333;28;20173;-64
2021/08/20 03:55:29;;;;;;;18.07;4.03;;;17.80;99.90;;;;;;5012331;28;20561;-64
2021/08/20 03:57:55;;;;;;;4.77;3.90;;;17.70;99.90;;;;;;5012188;28;20533;-64
2021/08/20 04:00:21;;;;;;;4.23;3.63;;;17.70;99.90;;;;;;5009613;28;20182;-64
2021/08/20 04:02:47;;;;;;;3.30;3.00;;;17.70;99.90;;;;;;4993032;28;20290;-63
2021/08/20 04:05:12;;;;;;;3.60;2.60;;;17.70;99.90;;;;;;4992526;28;20511;-63
2021/08/20 04:07:38;;;;;;;2.90;2.60;;;17.80;99.90;;;;;;4992521;28;20278;-63
2021/08/20 04:10:05;;;;;;;4.83;3.10;;;17.80;99.90;;;;;;4993112;28;20270;-63
2021/08/20 04:12:30;;;;;;;4.67;3.30;;;17.80;99.90;;;;;;4992331;28;20262;-65
2021/08/20 04:14:56;;;;;;;4.20;2.87;;;17.80;99.90;;;;;;5002250;28;20468;-63
2021/08/20 04:17:22;;;;;;;3.30;3.00;;;17.70;99.90;;;;;;5010159;28;20183;-63
2021/08/20 04:19:47;;;;;;;5.03;2.70;;;17.70;99.90;;;;;;4993433;28;20184;-63
2021/08/20 04:22:13;;;;;;;2.80;2.60;;;17.70;99.90;;;;;;4992208;28;20442;-63
2021/08/20 04:24:41;;;;;;;3.33;3.07;;;17.60;99.90;;;;;;4992362;28;20180;-63
2021/08/20 04:27:07;;;;;;;3.53;3.33;;;17.50;99.90;;;;;;4992224;28;20246;-63
2021/08/20 04:29:33;;;;;;;5.27;3.00;;;17.60;99.90;;;;;;4992043;28;20592;-63
2021/08/20 04:31:58;;;;;;;3.93;3.10;;;17.60;99.90;;;;;;5005518;28;20187;-64
2021/08/20 04:34:24;;;;;;;4.03;2.80;;;17.60;99.90;;;;;;5011877;28;20177;-64
2021/08/20 04:36:50;;;;;;;3.00;2.70;;;17.70;99.90;;;;;;5011666;28;20175;-63
2021/08/20 04:39:15;;;;;;;5.27;2.73;;;17.70;99.90;;;;;;5011627;28;20941;-64
2021/08/20 04:41:42;;;;;;;4.80;3.10;;;17.80;99.90;;;;;;5011627;28;20678;-63
2021/08/20 04:44:07;;;;;;;3.37;2.70;;;17.80;99.90;;;;;;5011815;28;20177;-63
2021/08/20 04:46:33;;;;;;;6.70;3.77;;;17.70;99.90;;;;;;5011926;28;20421;-63
2021/08/20 04:48:58;;;;;;;3.00;2.67;;;17.70;99.90;;;;;;5015122;28;20631;-63
2021/08/20 04:51:24;;;;;;;3.13;2.83;;;17.60;99.90;;;;;;5015219;28;20605;-64
2021/08/20 04:53:51;;;;;;;4.90;3.50;;;17.60;99.90;;;;;;5015461;28;20250;-63
2021/08/20 04:56:17;;;;;;;3.63;2.80;;;17.70;99.90;;;;;;5014914;28;20171;-64
2021/08/20 04:58:42;;;;;;;4.10;2.93;;;17.70;99.90;;;;;;5015152;28;20491;-64
2021/08/20 05:01:08;;;;;;;4.13;2.90;;;17.80;99.90;;;;;;5015117;28;20473;-63
2021/08/20 05:03:34;;;;;;;2.60;2.40;;;17.90;99.90;;;;;;5015295;28;20187;-63
2021/08/20 05:05:59;;;;;;;4.10;2.97;;;17.90;99.90;;;;;;5015116;28;20633;-64
2021/08/20 05:08:25;;;;;;;3.60;3.13;;;18.00;99.90;;;;;;5014866;28;20212;-64
2021/08/20 05:10:51;;;;;;;3.00;2.80;;;18.10;99.90;;;;;;5014530;28;20199;-63
2021/08/20 05:13:17;;;;;;;3.17;2.93;;;18.10;99.90;;;;;;5014937;28;20217;-63
2021/08/20 05:15:43;;;;;;;5.60;2.90;;;18.20;99.90;;;;;;5014835;28;20175;-63
2021/08/20 05:18:08;;;;;;;4.23;3.43;;;18.20;99.90;;;;;;5013230;28;20508;-66
2021/08/20 05:20:34;;;;;;;3.23;2.90;;;18.10;99.90;;;;;;5005552;28;20172;-66
2021/08/20 05:23:00;;;;;;;3.40;3.10;;;18.00;99.90;;;;;;4995261;28;20191;-66
2021/08/20 05:25:31;;;;;;;4.90;3.17;;;18.00;99.90;;;;;;4995201;28;20617;-66
2021/08/20 05:27:56;;;;;;;3.70;3.40;;;18.00;99.90;;;;;;4995135;28;20786;-66
2021/08/20 05:30:22;;;;;;;6.50;3.13;;;18.10;99.90;;;;;;4994810;28;20462;-67
2021/08/20 05:32:47;;;;;;;3.30;3.00;;;18.10;99.90;;;;;;4995145;28;20195;-66
2021/08/20 05:35:14;;;;;;;4.47;3.07;;;18.20;99.90;;;;;;4995068;28;20175;-66
2021/08/20 05:37:40;;;;;;;4.67;3.37;;;18.30;99.90;;;;;;4995011;28;20172;-66
2021/08/20 05:40:07;;;;;;;3.63;3.37;;;18.30;99.90;;;;;;4994607;28;20422;-66
2021/08/20 05:42:33;;;;;;;4.30;3.87;;;18.40;99.90;;;;;;4994774;28;20448;-66
2021/08/20 05:44:58;;;;;;;3.80;3.30;;;18.30;99.90;;;;;;4994943;28;20883;-66
2021/08/20 05:47:24;;;;;;;4.60;4.20;;;18.40;99.90;;;;;;4994945;28;20167;-66
2021/08/20 05:49:50;;;;;;;4.10;3.70;;;18.50;99.90;;;;;;4994309;28;20657;-67
2021/08/20 05:52:17;;;;;;;3.00;2.70;;;18.60;99.90;;;;;;4994634;28;20192;-66
2021/08/20 05:54:43;;;;;;;3.70;3.00;;;18.70;99.90;;;;;;5014174;28;20422;-66
2021/08/20 05:57:08;;;;;;;4.40;2.90;;;18.70;99.90;;;;;;5010374;28;20464;-66
2021/08/20 05:59:34;;;;;;;4.23;3.80;;;18.90;99.90;;;;;;4993857;28;20425;-66
2021/08/20 06:01:59;;;;;;;3.53;2.60;;;19.00;99.90;;;;;;4999897;28;20226;-66
2021/08/20 06:04:25;;;;;;;4.43;4.03;;;19.10;99.90;;;;;;5014140;28;20515;-66
2021/08/20 06:06:50;;;;;;;3.63;3.33;;;19.20;99.90;;;;;;5005499;28;20183;-67
2021/08/20 06:09:16;;;;;;;5.10;3.13;;;19.30;99.90;;;;;;4994012;28;20234;-66
2021/08/20 06:11:41;;;;;;;6.63;4.33;;;19.50;99.90;;;;;;4994354;28;20282;-66
2021/08/20 06:14:07;;;;;;;4.00;3.60;;;19.50;99.90;;;;;;4994326;28;20178;-66
2021/08/20 06:16:32;;;;;;;6.00;4.57;;;19.70;99.90;;;;;;4994250;28;20633;-66
2021/08/20 06:18:58;;;;;;;4.10;3.57;;;19.80;99.90;;;;;;4996974;28;20179;-66
2021/08/20 06:21:24;;;;;;;6.30;3.80;;;19.90;99.90;;;;;;5009257;28;20202;-66
2021/08/20 06:23:49;;;;;;;5.23;4.73;;;20.00;99.90;;;;;;4995120;28;20245;-66
2021/08/20 06:26:15;;;;;;;7.63;5.10;;;20.00;99.90;;;;;;4996186;28;20999;-66
2021/08/20 06:28:41;;;;;;;9.57;4.60;;;20.10;99.90;;;;;;4992587;28;20226;-67
2021/08/20 06:31:06;;;;;;;4.40;4.00;;;20.10;99.90;;;;;;4991556;28;20267;-66
2021/08/20 06:33:32;;;;;;;3.77;3.37;;;20.20;99.90;;;;;;4994243;28;20180;-66
2021/08/20 06:35:58;;;;;;;4.30;3.60;;;20.30;99.90;;;;;;4993348;28;20222;-66
2021/08/20 06:38:24;;;;;;;4.60;4.30;;;20.50;99.90;;;;;;4994412;28;20434;-66
2021/08/20 06:40:49;;;;;;;3.83;3.53;;;20.50;99.90;;;;;;4996914;28;20754;-66
2021/08/20 06:43:15;;;;;;;4.37;3.97;;;20.60;99.90;;;;;;5013445;28;20592;-66
2021/08/20 06:45:41;;;;;;;4.30;3.80;;;20.70;99.90;;;;;;5013111;28;20645;-66
2021/08/20 06:48:06;;;;;;;3.93;3.00;;;20.90;99.90;;;;;;4992790;28;20195;-66
2021/08/20 06:50:32;;;;;;;4.20;3.80;;;20.90;99.90;;;;;;5000239;28;20177;-66
2021/08/20 06:52:57;;;;;;;3.93;3.63;;;20.90;99.90;;;;;;4993695;28;20246;-66
2021/08/20 06:55:23;;;;;;;4.93;4.53;;;21.30;99.90;;;;;;4994671;28;20723;-67
2021/08/20 06:57:49;;;;;;;7.73;5.03;;;21.80;99.90;;;;;;4993489;28;20258;-66
2021/08/20 07:00:15;;;;;;;4.63;4.23;;;22.20;99.90;;;;;;4993143;28;20297;-66
2021/08/20 07:02:44;;;;;;;4.87;4.00;;;22.50;99.90;;;;;;4993253;28;20793;-66
2021/08/20 07:05:12;;;;;;;5.70;5.20;;;22.80;99.90;;;;;;5000313;28;20186;-66
2021/08/20 07:07:38;;;;;;;6.53;5.70;;;22.90;99.90;;;;;;4997834;28;20932;-66
2021/08/20 07:10:12;;;;;;;7.33;6.70;;;22.30;99.90;;;;;;4999674;28;20464;-67
2021/08/20 07:12:39;;;;;;;11.90;5.30;;;22.20;99.90;;;;;;4996232;28;20446;-66
2021/08/20 07:15:06;;;;;;;5.77;5.10;;;22.10;99.90;;;;;;4992288;28;20415;-66
2021/08/20 07:17:31;;;;;;;7.83;5.53;;;22.10;99.90;;;;;;4994282;28;20507;-67
2021/08/20 07:19:57;;;;;;;6.80;5.77;;;22.20;99.90;;;;;;5006716;28;20472;-66
2021/08/20 07:22:23;;;;;;;7.30;6.70;;;22.50;99.90;;;;;;5003072;28;20199;-67
2021/08/20 07:24:49;;;;;;;6.80;5.57;;;22.90;99.90;;;;;;4992448;28;20453;-67
2021/08/20 07:27:15;;;;;;;6.10;5.60;;;23.10;99.90;;;;;;5006988;28;20183;-67
2021/08/20 07:29:40;;;;;;;7.03;4.90;;;23.70;99.90;;;;;;5012186;28;20195;-67
2021/08/20 07:32:06;;;;;;;5.60;4.90;;;23.70;99.90;;;;;;5010905;28;20253;-67
2021/08/20 07:34:32;;;;;;;4.83;4.43;;;24.00;99.90;;;;;;4992887;28;20258;-67
2021/08/20 07:36:57;;;;;;;5.77;5.27;;;24.00;99.90;;;;;;4992829;28;20502;-67
2021/08/20 07:39:26;;;;;;;13.10;12.00;;;24.00;99.90;;;;;;5002590;28;20664;-67
2021/08/20 07:41:52;;;;;;;7.30;6.70;;;23.90;99.90;;;;;;5011743;28;20238;-67
2021/08/20 07:44:18;;;;;;;6.70;6.20;;;24.00;99.90;;;;;;5012137;28;20429;-67
2021/08/20 07:46:43;;;;;;;6.53;6.03;;;24.40;99.90;;;;;;5010537;28;20453;-68
2021/08/20 07:49:09;;;;;;;7.17;6.57;;;24.80;99.90;;;;;;5010439;28;20248;-67
2021/08/20 07:51:34;;;;;;;7.37;6.77;;;24.90;99.90;;;;;;5012119;28;20244;-67
2021/08/20 07:54:00;;;;;;;6.40;5.80;;;24.90;99.90;;;;;;5005388;28;20215;-67
2021/08/20 07:56:25;;;;;;;6.40;5.90;;;25.20;99.90;;;;;;4992676;28;20190;-68
2021/08/20 07:58:51;;;;;;;6.00;5.50;;;25.50;99.90;;;;;;4993463;28;20273;-67
2021/08/20 08:01:17;;;;;;;9.43;5.67;;;25.50;99.90;;;;;;4993177;28;20219;-67
2021/08/20 08:03:43;;;;;;;6.17;5.67;;;25.60;99.90;;;;;;4992501;28;20952;-67
2021/08/20 08:06:13;;;;;;;13.47;7.50;;;26.00;99.90;;;;;;4992210;28;20979;-67
2021/08/20 08:08:39;;;;;;;6.80;5.73;;;26.00;99.90;;;;;;4992041;28;20497;-67
2021/08/20 08:11:05;;;;;;;5.83;5.43;;;25.70;99.90;;;;;;4993401;28;20469;-67
2021/08/20 08:13:31;;;;;;;6.67;6.07;;;25.80;99.90;;;;;;4992402;28;20438;-67
2021/08/20 08:15:56;;;;;;;6.83;6.23;;;26.20;99.90;;;;;;4992491;28;20816;-68
2021/08/20 08:18:22;;;;;;;7.80;5.97;;;26.50;99.90;;;;;;4992269;28;20595;-68
2021/08/20 08:20:48;;;;;;;7.47;6.77;;;26.30;99.90;;;;;;4993377;28;20599;-67
2021/08/20 08:23:13;;;;;;;7.07;5.93;;;26.30;99.90;;;;;;4996462;28;20208;-67
2021/08/20 08:25:39;;;;;;;5.53;5.03;;;26.00;99.90;;;;;;4996339;28;20311;-67
2021/08/20 08:28:05;;;;;;;5.27;4.73;;;26.40;99.90;;;;;;5007051;28;20170;-68
2021/08/20 08:30:39;;;;;;;4.93;4.53;;;26.90;99.90;;;;;;5015313;28;20653;-68
2021/08/20 08:33:06;;;;;;;5.07;4.67;;;27.30;99.90;;;;;;5014082;28;20433;-67
2021/08/20 08:35:32;;;;;;;4.37;4.00;;;26.70;99.90;;;;;;5006758;28;20434;-67
2021/08/20 08:38:06;;;;;;;4.73;4.40;;;26.50;99.90;;;;;;4996710;28;20445;-68
2021/08/20 08:40:33;;;;;;;4.63;4.10;;;26.10;99.90;;;;;;5011345;28;20183;-68
2021/08/20 08:42:59;;;;;;;4.33;4.00;;;26.60;99.90;;;;;;5014275;28;20516;-68
2021/08/20 08:45:25;;;;;;;5.60;4.10;;;27.40;99.90;;;;;;5015434;28;20796;-67
2021/08/20 08:47:54;;;;;;;4.93;4.43;;;27.50;99.90;;;;;;5010024;28;20518;-68
2021/08/20 08:50:20;;;;;;;4.30;4.00;;;27.60;99.90;;;;;;4996541;28;20473;-67
2021/08/20 08:52:46;;;;;;;4.87;4.47;;;27.40;99.90;;;;;;4995646;28;20446;-67
2021/08/20 08:55:13;;;;;;;5.33;4.83;;;26.80;99.90;;;;;;4997440;28;20489;-67
2021/08/20 08:57:38;;;;;;;5.27;4.87;;;26.00;99.90;;;;;;5004569;28;20223;-67
2021/08/20 09:00:05;;;;;;;4.67;4.37;;;26.00;99.90;;;;;;4995032;28;20850;-67
2021/08/20 09:02:33;;;;;;;4.50;4.13;;;25.90;99.90;;;;;;4996391;28;20215;-67
2021/08/20 09:04:59;;;;;;;5.20;4.73;;;26.40;99.90;;;;;;4995497;28;20944;-68
2021/08/20 09:07:26;;;;;;;4.30;3.90;;;27.10;99.90;;;;;;4995423;28;20422;-68
2021/08/20 09:10:15;;;;;;;4.20;3.80;;;27.80;99.40;;;;;;5011593;28;20467;-67
2021/08/20 09:12:50;;;;;;;6.83;5.23;;;28.80;97.90;;;;;;5000377;28;20457;-67
2021/08/20 09:15:17;;;;;;;6.73;6.27;;;29.60;98.40;;;;;;4995284;28;20414;-68
2021/08/20 09:17:54;;;;;;;9.33;6.47;;;29.90;98.20;;;;;;4996342;28;20513;-67
2021/08/20 09:20:24;;;;;;;7.57;6.90;;;29.10;97.80;;;;;;4994775;28;20477;-68
2021/08/20 09:22:53;;;;;;;6.23;5.83;;;28.10;99.10;;;;;;4999628;28;20455;-68
2021/08/20 09:25:29;;;;;;;7.70;6.57;;;27.20;99.90;;;;;;5014390;28;20452;-68
2021/08/20 09:28:16;;;;;;;7.33;6.63;;;26.50;99.90;;;;;;5013099;28;20428;-68
2021/08/20 09:31:02;;;;;;;7.87;7.27;;;26.10;99.90;;;;;;5014538;28;20464;-68
2021/08/20 09:33:31;;;;;;;6.17;5.57;;;26.10;99.90;;;;;;5010221;28;20452;-68
2021/08/20 09:36:00;;;;;;;5.80;5.30;;;27.60;99.90;;;;;;4999030;28;20496;-67
2021/08/20 09:38:28;;;;;;;4.73;4.43;;;28.80;98.30;;;;;;5013997;28;20430;-68
2021/08/20 09:40:58;;;;;;;5.50;5.00;;;29.40;96.40;;;;;;4997473;28;20449;-68
2021/08/20 09:43:32;;;;;;;4.93;4.53;;;28.50;95.70;;;;;;4974220;28;20438;-68
2021/08/20 09:46:27;;;;;;;5.20;4.80;;;27.40;96.80;;;;;;4975711;28;20423;-68
2021/08/20 09:49:00;;;;;;;4.87;4.47;;;27.20;97.30;;;;;;4983978;28;20989;-67
2021/08/20 09:51:38;;;;;;;4.23;3.77;;;26.00;98.10;;;;;;4994959;28;20862;-68
2021/08/20 09:54:15;;;;;;;3.93;3.63;;;25.70;98.70;;;;;;4995216;28;20430;-68
2021/08/20 09:56:42;;;;;;;4.60;4.20;;;25.90;99.10;;;;;;5002372;28;20449;-67
2021/08/20 09:59:10;;;;;;;4.47;4.17;;;25.80;98.70;;;;;;4994346;28;20423;-67
2021/08/20 10:01:46;;;;;;;4.47;4.17;;;25.60;98.70;;;;;;4995308;28;20550;-68
2021/08/20 10:04:14;;;;;;;3.60;3.40;;;25.80;98.30;;;;;;4994565;28;20833;-67
2021/08/20 10:06:41;;;;;;;3.73;3.43;;;28.10;96.30;;;;;;4994274;28;20485;-68
2021/08/20 10:09:12;;;;;;;3.60;3.40;;;30.40;92.70;;;;;;4993962;28;20554;-66
2021/08/20 10:11:42;;;;;;;3.80;3.60;;;31.90;89.00;;;;;;4994348;28;20438;-66
2021/08/20 10:14:09;;;;;;;3.83;3.53;;;32.50;84.10;;;;;;4993044;28;20720;-66
2021/08/20 10:16:36;;;;;;;4.83;4.43;;;32.30;80.00;;;;;;4994250;28;20430;-66
2021/08/20 10:19:04;;;;;;;6.23;4.53;;;31.70;84.20;;;;;;4993629;28;20928;-66
2021/08/20 10:21:32;;;;;;;5.57;5.17;;;30.80;87.00;;;;;;4993984;28;20467;-66
2021/08/20 10:23:58;;;;;;;5.77;5.37;;;29.50;90.20;;;;;;4993817;28;20426;-68
2021/08/20 10:26:25;;;;;;;5.60;5.10;;;28.20;92.30;;;;;;4994206;28;20425;-65
2021/08/20 10:28:51;;;;;;;5.90;5.33;;;27.10;93.80;;;;;;4993914;28;20454;-67
2021/08/20 10:31:18;;;;;;;6.00;5.50;;;26.50;95.20;;;;;;4994048;28;20465;-68
2021/08/20 10:33:43;;;;;;;5.90;5.30;;;26.30;96.20;;;;;;4993802;28;20415;-67
2021/08/20 10:36:09;;;;;;;6.70;4.70;;;26.20;96.70;;;;;;4993889;28;20464;-67
2021/08/20 10:38:53;;;;;;;5.47;4.97;;;27.10;96.90;;;;;;4993557;28;20172;-68
2021/08/20 10:41:22;;;;;;;5.30;4.90;;;29.40;93.80;;;;;;4993754;28;20198;-65
2021/08/20 10:43:49;;;;;;;5.73;5.23;;;31.20;90.80;;;;;;4993724;28;20418;-65
2021/08/20 10:51:56;;;;;;;5.70;4.67;;;29.10;91.20;;;;;;4993606;28;20442;-65
2021/08/20 10:54:33;;;;;;;5.27;4.87;;;28.20;92.00;;;;;;4993600;28;20414;-65
2021/08/20 10:57:03;;;;;;;5.80;5.30;;;27.20;93.00;;;;;;4993530;28;20936;-68
2021/08/20 10:59:43;;;;;;;5.80;5.20;;;27.10;93.60;;;;;;4993051;28;20518;-68
2021/08/20 11:02:23;;;;;;;4.83;4.43;;;27.10;93.40;;;;;;4993554;28;20470;-68
2021/08/20 11:04:57;;;;;;;4.50;4.10;;;27.00;92.40;;;;;;4993300;28;20414;-67
2021/08/20 11:07:41;;;;;;;4.73;4.33;;;27.00;91.70;;;;;;4993323;28;20907;-67
2021/08/20 11:10:10;;;;;;;5.23;4.93;;;26.50;92.40;;;;;;4992860;28;20466;-67
2021/08/20 11:12:49;;;;;;;4.23;3.83;;;26.40;93.20;;;;;;4993128;28;20529;-68
2021/08/20 11:15:17;;;;;;;4.83;4.43;;;26.70;93.70;;;;;;4993213;28;20943;-67
2021/08/20 11:17:53;;;;;;;5.53;5.03;;;28.70;92.50;;;;;;4993038;28;20857;-66
2021/08/20 11:20:28;;;;;;;4.70;4.30;;;30.60;88.70;;;;;;4993123;28;20426;-66
2021/08/20 11:23:09;;;;;;;4.30;4.00;;;33.60;81.70;;;;;;4993175;28;20418;-66
2021/08/20 11:25:42;;;;;;;4.60;4.20;;;35.80;72.90;;;;;;4992989;28;20419;-66
2021/08/20 11:28:24;;;;;;;4.70;4.40;;;37.10;66.20;;;;;;4992851;28;20482;-66
2021/08/20 11:31:09;;;;;;;4.30;3.90;;;36.80;61.00;;;;;;4992774;28;20461;-66
2021/08/20 11:33:42;;;;;;;5.37;4.97;;;37.10;61.20;;;;;;4992963;28;20414;-65
2021/08/20 11:36:12;;;;;;;4.60;4.13;;;37.30;58.90;;;;;;4992157;28;20492;-66
2021/08/20 11:38:46;;;;;;;4.40;4.10;;;36.90;57.90;;;;;;5010482;28;20816;-65
2021/08/20 11:41:24;;;;;;;6.20;5.10;;;36.60;57.80;;;;;;5002075;28;20453;-66
2021/08/20 11:43:53;;;;;;;5.07;4.57;;;35.60;58.20;;;;;;4988732;28;20422;-65
2021/08/20 11:46:19;;;;;;;5.13;4.73;;;34.70;58.70;;;;;;5008029;28;20873;-65
2021/08/20 11:48:53;;;;;;;5.17;3.97;;;33.80;59.70;;;;;;4992559;28;20458;-66
2021/08/20 11:51:28;;;;;;;4.50;4.20;;;33.50;60.70;;;;;;4994085;28;20493;-65
2021/08/20 11:53:57;;;;;;;4.87;4.40;;;33.80;58.30;;;;;;4992429;28;20422;-66
2021/08/20 11:56:23;;;;;;;4.83;4.53;;;34.70;57.80;;;;;;4992076;28;20837;-66
2021/08/20 11:58:49;;;;;;;5.10;4.70;;;37.20;55.00;;;;;;4992888;28;20435;-66
2021/08/20 12:01:22;;;;;;;4.00;3.70;;;37.40;53.00;;;;;;4994808;28;20466;-66
2021/08/20 12:03:50;;;;;;;4.10;3.80;;;38.40;52.90;;;;;;4992371;28;20799;-66
2021/08/20 12:06:16;;;;;;;5.20;4.90;;;38.30;51.30;;;;;;4992476;28;21004;-63
2021/08/20 12:08:43;;;;;;;4.50;4.20;;;36.80;51.90;;;;;;4995464;28;20465;-63
2021/08/20 12:11:10;;;;;;;4.43;4.07;;;35.20;54.40;;;;;;4997096;28;20457;-63
2021/08/20 12:13:49;;;;;;;5.00;4.60;;;34.00;55.50;;;;;;5003654;28;20468;-64
2021/08/20 12:16:35;;;;;;;4.83;4.40;;;33.10;56.80;;;;;;5012122;28;20797;-64
2021/08/20 12:19:24;;;;;;;4.33;4.03;;;31.90;57.80;;;;;;5011642;28;20426;-63
2021/08/20 12:22:11;;;;;;;4.57;4.27;;;31.90;58.10;;;;;;5011031;28;20985;-63
2021/08/20 12:24:45;;;;;;;4.43;4.13;;;33.00;56.90;;;;;;4972812;28;20430;-64
2021/08/20 12:27:31;;;;;;;4.57;4.27;;;35.60;54.50;;;;;;4975875;28;20442;-64
2021/08/20 12:29:59;;;;;;;4.70;4.40;;;38.50;51.10;;;;;;4980963;28;20534;-64
2021/08/20 12:32:26;;;;;;;3.80;3.50;;;39.50;47.50;;;;;;4991090;28;20470;-64
2021/08/20 12:35:08;;;;;;;4.10;3.80;;;36.80;48.70;;;;;;4991866;28;20529;-63
2021/08/20 12:37:35;;;;;;;4.30;4.00;;;35.90;50.80;;;;;;4992232;28;20434;-64
2021/08/20 12:40:13;;;;;;;4.13;3.93;;;36.20;51.90;;;;;;4991821;28;20423;-64
2021/08/20 12:42:45;;;;;;;4.77;4.37;;;37.50;50.50;;;;;;4993912;28;20458;-64
2021/08/20 12:45:16;;;;;;;3.80;3.60;;;36.40;51.20;;;;;;4991963;28;20426;-63
2021/08/20 12:48:00;;;;;;;4.53;3.50;;;35.00;52.70;;;;;;4991990;28;20433;-64
2021/08/20 12:50:26;;;;;;;4.10;3.73;;;35.80;52.90;;;;;;4992118;28;20541;-63
2021/08/20 12:53:17;;;;;;;4.40;4.10;;;37.50;51.20;;;;;;4991941;28;20518;-64
2021/08/20 12:55:46;;;;;;;3.80;3.60;;;39.00;49.80;;;;;;4992032;28;20184;-63